METAR Data
IDs: Format: Raw Decoded Include TAF

Data at: 1335 UTC 14 Dec 2019

KDEQ 141253Z AUTO 00000KT 1/4SM FG VV002 01/M01 A2984 RMK AO2 SLP105 T00061006
KDEQ 141239Z AUTO 00000KT 1/4SM FG VV002 01/M01 A2984 RMK AO2 T00061006
KDEQ 141229Z AUTO 00000KT 1/2SM FG VV002 01/00 A2984 RMK AO2 T00060000
KDEQ 141218Z AUTO 00000KT 1/4SM FG VV002 01/M01 A2984 RMK AO2 T00061006
KDEQ 141153Z AUTO 00000KT 1/2SM FG VV003 01/00 A2984 RMK AO2 SNB31E37 SLP105 P0000 60000 I6001 T00110000 10022 20000 53005
KDEQ 141053Z AUTO 00000KT 1/4SM FG VV002 01/00 A2982 RMK AO2 SLP097 I1001 T00060000
KDEQ 141021Z AUTO 00000KT 3/4SM BR OVC002 00/M01 A2982 RMK AO2 I1000 T00001006
KDEQ 141013Z AUTO 00000KT 1SM BR OVC002 00/M01 A2982 RMK AO2 T00001011
KDEQ 140953Z AUTO 00000KT 1/2SM FG VV002 00/M01 A2983 RMK AO2 SLP099 T00001011
KDEQ 140935Z AUTO 00000KT 1/2SM FG VV002 01/M01 A2983 RMK AO2 T00061006
KDEQ 140922Z AUTO 00000KT 1/4SM FG VV002 01/M01 A2983 RMK AO2 T00061006
KDEQ 140853Z AUTO 00000KT 1/2SM FG VV002 00/M01 A2983 RMK AO2 SLP100 T00001006 50000
KDEQ 140840Z AUTO 11003KT 1/2SM FG VV001 01/M01 A2982 RMK AO2 T00061006
KDEQ 140816Z AUTO 00000KT 1/4SM FG VV001 01/M01 A2984 RMK AO2 T00061006
KDEQ 140753Z AUTO 00000KT 1/2SM FG VV002 01/00 A2984 RMK AO2 SLP103 T00060000
KDEQ 140749Z AUTO 00000KT 1/2SM FG OVC001 01/M01 A2983 RMK AO2
KDEQ 140653Z AUTO 00000KT 1/4SM FG VV001 01/00 A2983 RMK AO2 SLP100 T00110000
KDEQ 140643Z AUTO 00000KT 1/4SM FG VV001 01/00 A2983 RMK AO2 T00110000
KDEQ 140610Z AUTO 00000KT 3/4SM BR VV002 01/01 A2984 RMK AO2 T00110006
KDEQ 140605Z AUTO 00000KT 1 1/4SM BR FEW002 02/01 A2984 RMK AO2 T00220006
KDEQ 140600Z AUTO 00000KT 1/2SM FG VV002 02/01 A2984 RMK AO2 T00220006
KDEQ 140553Z AUTO 00000KT 3/4SM BR CLR 02/01 A2984 RMK AO2 SLP105 T00170006 10089 20017 401500000 56005
KDEQ 140533Z AUTO 00000KT 1 1/4SM BR SCT002 03/01 A2985 RMK AO2 T00280011
KDEQ 140528Z AUTO 00000KT 3/4SM BR VV001 03/01 A2985 RMK AO2 T00280011
KDEQ 140453Z AUTO 00000KT 1/4SM FG VV002 02/01 A2985 RMK AO2 SLP108 T00170011
KDEQ 140442Z AUTO 00000KT 3/4SM BR VV003 02/01 A2985 RMK AO2 T00220011
KDEQ 140434Z AUTO 00000KT 1 1/4SM BR FEW002 02/01 A2985 RMK AO2 T00220011
KDEQ 140427Z AUTO 10003KT 2SM BR SCT002 02/01 A2985 RMK AO2 T00220011
KDEQ 140406Z AUTO 00000KT 3SM BR OVC002 03/02 A2986 RMK AO2 T00330017
KDEQ 140403Z AUTO 00000KT 1 1/4SM BR BKN002 03/02 A2986 RMK AO2 T00330017
KDEQ 140353Z AUTO 00000KT 1/4SM FG VV002 03/02 A2986 RMK AO2 SLP110 T00280022
KDEQ 140339Z AUTO 00000KT 3/4SM BR VV003 02/01 A2985 RMK AO2 T00220011
KDEQ 140333Z AUTO 00000KT 1 1/4SM BR SCT002 03/02 A2985 RMK AO2 T00280017
KDEQ 140319Z AUTO 00000KT 1/2SM FG VV002 04/03 A2985 RMK AO2 T00390028
KDEQ 140253Z AUTO 00000KT 1/4SM FG VV002 03/02 A2984 RMK AO2 SLP104 T00330022 58001
KDEQ 140217Z AUTO 00000KT 1/4SM FG VV002 04/03 A2984 RMK AO2 T00390028
KDEQ 140207Z AUTO 00000KT 3/4SM BR VV003 04/03 A2984 RMK AO2 T00440028
KDEQ 140153Z AUTO 00000KT 5SM BR CLR 05/04 A2985 RMK AO2 SLP106 T00500039
KDEQ 140146Z AUTO 00000KT 3SM BR CLR 06/04 A2985 RMK AO2 T00560039
KDEQ 140142Z AUTO 00000KT 1 1/4SM BR CLR 05/03 A2985 RMK AO2 T00500033
KDEQ 140135Z AUTO 00000KT 3/4SM BR VV003 04/03 A2984 RMK AO2 T00440033
KDEQ 140129Z AUTO 00000KT 1 1/2SM BR CLR 05/04 A2984 RMK AO2 T00500039
KDEQ 140122Z AUTO 00000KT 1SM BR VV003 05/03 A2984 RMK AO2 T00500033
KDEQ 140113Z AUTO 00000KT 1 1/2SM BR FEW003 06/04 A2984 RMK AO2 T00610044
KDEQ 140053Z AUTO 00000KT 7SM CLR 07/05 A2984 RMK AO2 SLP105 T00670050
KDEQ 132353Z AUTO 00000KT 10SM CLR 08/06 A2982 RMK AO2 SLP097 T00830056 10150 20083 52011
KDEQ 132253Z AUTO 00000KT 10SM CLR 13/07 A2981 RMK AO2 SLP094 T01330067
KDEQ 132153Z AUTO 00000KT 10SM CLR 15/07 A2980 RMK AO2 SLP088 T01500072
KDEQ 132053Z AUTO 00000KT 10SM CLR 14/07 A2979 RMK AO2 SLP085 T01440067 56029
KDEQ 131953Z AUTO 00000KT 10SM CLR 14/07 A2979 RMK AO2 SLP088 T01440067
KDEQ 131853Z AUTO 00000KT 10SM FEW060 13/06 A2983 RMK AO2 SLP099 T01330061
KDEQ 131753Z AUTO 18004KT 10SM FEW075 12/05 A2987 RMK AO2 SLP115 T01220050 10122 20033 58023
KDEQ 131707Z AUTO 10005KT 10SM SCT015 BKN055 11/04 A2991 RMK AO2 T01110044
KDEQ 131553Z AUTO 10005KT 10SM OVC020 09/03 A2993 RMK AO2 SLP135 T00890033
KDEQ 131453Z AUTO 05003KT 10SM OVC025 07/03 A2994 RMK AO2 SLP139 T00670028 58006
KDEQ 131353Z AUTO 05003KT 10SM OVC026 06/02 A2996 RMK AO2 SLP145 T00560017
KDEQ 131253Z AUTO 05003KT 10SM OVC024 05/02 A2996 RMK AO2 SLP145 T00500022
KDEQ 131153Z AUTO 00000KT 10SM OVC029 03/02 A2996 RMK AO2 SLP145 T00330017 10033 20000 58019
KDEQ 131131Z AUTO 04003KT 10SM OVC029 03/01 A2996 RMK AO2 T00280006
KDEQ 131053Z AUTO 00000KT 10SM SCT032 OVC055 01/M01 A2998 RMK AO2 SLP150 T00111006
KDEQ 130953Z AUTO 00000KT 10SM BKN034 01/M01 A3000 RMK AO2 SLP160 T00111006
KDEQ 130853Z AUTO 00000KT 10SM CLR 02/M01 A3002 RMK AO2 SLP164 T00171006 56015
KDEQ 130753Z AUTO 00000KT 10SM CLR 01/00 A3003 RMK AO2 SLP168 T00110000
KDEQ 130653Z AUTO 00000KT 10SM CLR 02/M01 A3004 RMK AO2 SLP172 T00171006
KDEQ 130553Z AUTO 11004KT 10SM CLR 01/M01 A3006 RMK AO2 SLP179 T00061011 10072 20000 401221028 58014
KDEQ 130453Z AUTO 00000KT 10SM CLR 01/M01 A3009 RMK AO2 SLP187 T00111011
KDEQ 130353Z AUTO 00000KT 10SM CLR 01/M01 A3009 RMK AO2 SLP191 T00111011
KDEQ 130253Z AUTO 00000KT 10SM CLR 02/M01 A3010 RMK AO2 SLP195 T00171006 58001
KDEQ 130153Z AUTO 07003KT 10SM CLR 02/M01 A3010 RMK AO2 SLP196 T00171006